Time;durP1;ratioP1;P1;durP2;ratioP2;P2;SDS_P1;SDS_P2;PMS_P1;PMS_P2;Temp;Humidity;BMP_temperature;BMP_pressure;BME280_temperature;BME280_humidity;BME280_pressure;Samples;Min_cycle;Max_cycle;Signal;HPM_P1;HPM_P2
2021/10/17 00:00:12;;;;;;;15.37;11.77;;;;;;;5.90;73.75;99944.88;1693016;83;21011;-57
2021/10/17 00:02:42;;;;;;;17.63;11.97;;;;;;;5.79;73.43;99937.11;1693917;83;21312;-57
2021/10/17 00:05:10;;;;;;;16.97;10.37;;;;;;;5.71;73.49;99932.42;1695561;83;21343;-57
2021/10/17 00:07:39;;;;;;;14.63;10.13;;;;;;;5.65;73.48;99938.81;1694472;83;21157;-57
2021/10/17 00:10:07;;;;;;;12.90;9.27;;;;;;;5.58;73.32;99936.33;1694699;83;20907;-57
2021/10/17 00:12:35;;;;;;;17.63;10.07;;;;;;;5.53;73.25;99933.77;1692375;83;21477;-57
2021/10/17 00:15:03;;;;;;;16.30;10.80;;;;;;;5.50;73.13;99931.64;1688564;83;21092;-57
2021/10/17 00:17:29;;;;;;;16.63;11.00;;;;;;;5.45;73.15;99931.74;1694720;83;21159;-57
2021/10/17 00:19:56;;;;;;;16.20;11.50;;;;;;;5.43;73.08;99936.27;1691437;83;21140;-57
2021/10/17 00:22:22;;;;;;;16.73;10.80;;;;;;;5.39;73.05;99935.02;1692055;83;21153;-57
2021/10/17 00:24:48;;;;;;;15.60;12.00;;;;;;;5.36;73.03;99928.45;1688157;83;21125;-57
2021/10/17 00:27:14;;;;;;;16.37;11.87;;;;;;;5.31;73.01;99936.09;1689972;83;21134;-57
2021/10/17 00:29:42;;;;;;;16.60;11.40;;;;;;;5.26;72.93;99936.67;1693132;83;21844;-57
2021/10/17 00:32:10;;;;;;;19.90;11.30;;;;;;;5.19;72.96;99935.03;1690417;83;21161;-57
2021/10/17 00:34:37;;;;;;;17.27;11.07;;;;;;;5.14;73.02;99928.06;1732849;81;21107;-57
2021/10/17 00:37:03;;;;;;;14.30;8.57;;;;;;;5.10;72.99;99935.28;1678812;83;21043;-57
2021/10/17 00:39:30;;;;;;;16.23;8.20;;;;;;;5.07;73.01;99931.34;1672743;85;21631;-58
2021/10/17 00:41:58;;;;;;;11.43;8.13;;;;;;;5.03;73.09;99934.09;1697881;83;21069;-57
2021/10/17 00:44:24;;;;;;;13.93;8.73;;;;;;;5.00;73.17;99927.52;1670317;85;21080;-57
2021/10/17 00:46:51;;;;;;;14.37;9.10;;;;;;;4.98;73.17;99928.88;1671644;83;21133;-57
2021/10/17 00:49:17;;;;;;;12.70;9.27;;;;;;;4.95;73.20;99924.94;1672965;85;21118;-57
2021/10/17 00:51:44;;;;;;;16.33;10.47;;;;;;;4.92;73.29;99925.03;1667704;83;21062;-57
2021/10/17 00:54:11;;;;;;;10.53;9.07;;;;;;;4.91;73.32;99927.27;1672630;84;21050;-57
2021/10/17 00:56:38;;;;;;;14.90;10.53;;;;;;;4.89;73.34;99923.75;1697182;83;21094;-57
2021/10/17 00:59:04;;;;;;;18.37;12.30;;;;;;;4.87;73.32;99933.56;1694216;83;21107;-57
2021/10/17 01:01:31;;;;;;;13.77;10.33;;;;;;;4.83;73.28;99929.23;1699324;83;21501;-57
2021/10/17 01:03:57;;;;;;;14.20;9.97;;;;;;;4.79;73.31;99927.08;1697837;83;21722;-57
2021/10/17 01:06:23;;;;;;;18.97;9.80;;;;;;;4.75;73.31;99929.86;1695157;83;21686;-57
2021/10/17 01:08:49;;;;;;;14.60;9.53;;;;;;;4.68;73.40;99927.75;1677669;83;21138;-57
2021/10/17 01:11:16;;;;;;;17.20;8.97;;;;;;;4.65;73.45;99925.17;1664447;84;21111;-57
2021/10/17 01:13:42;;;;;;;15.13;9.00;;;;;;;4.62;73.47;99935.02;1699745;83;21051;-57
2021/10/17 01:16:10;;;;;;;14.60;8.70;;;;;;;4.59;73.47;99929.77;1682159;84;21143;-57
2021/10/17 01:18:38;;;;;;;12.67;7.97;;;;;;;4.56;73.57;99934.25;1682897;84;21133;-57
2021/10/17 01:21:06;;;;;;;12.17;8.20;;;;;;;4.57;73.54;99937.80;1682294;84;21121;-57
2021/10/17 01:23:33;;;;;;;20.20;9.17;;;;;;;4.55;73.54;99937.81;1660132;84;21575;-57
2021/10/17 01:25:59;;;;;;;16.13;9.33;;;;;;;4.55;73.47;99931.16;1682281;84;21054;-57
2021/10/17 01:28:26;;;;;;;15.70;9.43;;;;;;;4.54;73.47;99929.84;1683326;84;21160;-56
2021/10/17 01:30:52;;;;;;;15.43;10.23;;;;;;;4.51;73.36;99924.11;1683782;84;21140;-57
2021/10/17 01:33:18;;;;;;;16.13;10.13;;;;;;;4.47;73.32;99925.11;1681472;84;21177;-57
2021/10/17 01:35:45;;;;;;;16.80;10.83;;;;;;;4.44;73.34;99929.16;1670916;84;21106;-56
2021/10/17 01:38:12;;;;;;;19.73;10.87;;;;;;;4.40;73.28;99926.15;1670948;84;21071;-57
2021/10/17 01:40:38;;;;;;;17.83;10.53;;;;;;;4.36;73.17;99931.10;1670101;84;21078;-57
2021/10/17 01:43:05;;;;;;;15.57;8.87;;;;;;;4.31;73.24;99936.98;1665108;84;21156;-57
2021/10/17 01:45:34;;;;;;;12.33;8.20;;;;;;;4.28;73.27;99934.83;1667323;84;23242;-57
2021/10/17 01:48:00;;;;;;;11.97;8.43;;;;;;;4.22;73.31;99941.62;1666052;84;21692;-57
2021/10/17 01:50:28;;;;;;;14.40;8.90;;;;;;;4.17;73.39;99933.25;1672555;84;21015;-57
2021/10/17 01:52:55;;;;;;;14.60;8.37;;;;;;;4.15;73.56;99934.20;1653820;85;20909;-57
2021/10/17 01:55:21;;;;;;;7.80;6.90;;;;;;;4.15;73.60;99938.20;1723549;82;20950;-57
2021/10/17 01:57:48;;;;;;;15.33;9.73;;;;;;;4.14;73.63;99938.66;1730205;82;21437;-57
2021/10/17 02:00:16;;;;;;;15.27;9.00;;;;;;;4.13;73.60;99935.56;1728129;82;20983;-57
2021/10/17 02:02:44;;;;;;;15.43;10.07;;;;;;;4.14;73.59;99937.78;1689868;83;21374;-57
2021/10/17 02:05:12;;;;;;;15.63;9.73;;;;;;;4.10;73.52;99936.94;1660687;85;20959;-57
2021/10/17 02:07:41;;;;;;;20.73;11.03;;;;;;;4.08;73.49;99944.56;1644030;85;20968;-56
2021/10/17 02:10:09;;;;;;;17.40;10.53;;;;;;;4.05;73.48;99952.15;1664465;85;21093;-56
2021/10/17 02:12:35;;;;;;;15.30;9.70;;;;;;;4.01;73.51;99941.56;1645418;85;20988;-56
2021/10/17 02:15:05;;;;;;;11.97;7.77;;;;;;;3.97;73.43;99950.08;1647452;83;21074;-56
2021/10/17 02:17:32;;;;;;;10.83;7.97;;;;;;;3.94;73.26;99947.47;1664802;84;21356;-57
2021/10/17 02:20:00;;;;;;;11.50;7.10;;;;;;;3.90;73.34;99950.23;1728844;82;20884;-56
2021/10/17 02:22:27;;;;;;;11.43;6.77;;;;;;;3.86;73.40;99952.05;1706020;82;21865;-56
2021/10/17 02:24:53;;;;;;;9.47;6.30;;;;;;;3.85;73.45;99947.63;1665745;83;20998;-56
2021/10/17 02:27:20;;;;;;;12.00;7.07;;;;;;;3.85;73.41;99948.08;1726633;82;21437;-56
2021/10/17 02:29:48;;;;;;;9.97;6.17;;;;;;;3.87;73.38;99958.26;1729273;82;20974;-56
2021/10/17 02:32:17;;;;;;;12.53;7.43;;;;;;;3.83;73.26;99952.09;1726150;82;21429;-56
2021/10/17 02:34:43;;;;;;;10.67;6.70;;;;;;;3.79;73.39;99951.29;1682732;81;22152;-56
2021/10/17 02:37:10;;;;;;;13.03;7.63;;;;;;;3.78;73.47;99954.86;1699519;83;20982;-56
2021/10/17 02:39:36;;;;;;;9.37;6.77;;;;;;;3.76;73.44;99953.11;1693959;83;21054;-55
2021/10/17 02:42:03;;;;;;;10.53;6.87;;;;;;;3.74;73.42;99956.28;1696311;83;21110;-54
2021/10/17 02:44:31;;;;;;;11.33;7.57;;;;;;;3.70;73.37;99955.44;1699621;83;20975;-54
2021/10/17 02:46:57;;;;;;;13.47;7.50;;;;;;;3.64;73.35;99952.89;1666546;85;21073;-54
2021/10/17 02:49:25;;;;;;;11.53;8.07;;;;;;;3.61;73.47;99946.28;1662624;84;21102;-54
2021/10/17 02:51:52;;;;;;;11.50;6.17;;;;;;;3.59;73.51;99944.53;1653559;84;21390;-55
2021/10/17 02:54:19;;;;;;;9.17;6.20;;;;;;;3.56;73.48;99950.81;1658869;85;20937;-55
2021/10/17 02:56:47;;;;;;;12.10;6.23;;;;;;;3.55;73.58;99950.84;1654682;85;21106;-55
2021/10/17 02:59:16;;;;;;;9.20;5.97;;;;;;;3.54;73.67;99950.41;1650308;85;21588;-55
2021/10/17 03:01:42;;;;;;;9.97;6.33;;;;;;;3.53;73.68;99956.17;1650296;85;21473;-55
2021/10/17 03:04:09;;;;;;;10.57;7.03;;;;;;;3.53;73.67;99952.64;1697563;83;21697;-55
2021/10/17 03:06:35;;;;;;;10.10;6.43;;;;;;;3.55;73.83;99950.84;1694894;83;21548;-55
2021/10/17 03:09:01;;;;;;;8.63;6.10;;;;;;;3.59;73.90;99953.86;1635099;86;21134;-55
2021/10/17 03:11:29;;;;;;;9.40;7.10;;;;;;;3.62;73.95;99956.03;1697668;82;21941;-55
2021/10/17 03:13:56;;;;;;;10.77;7.10;;;;;;;3.65;74.00;99952.44;1664759;85;20948;-55
2021/10/17 03:16:24;;;;;;;11.87;7.63;;;;;;;3.67;74.06;99962.14;1693323;83;21122;-55
2021/10/17 03:18:50;;;;;;;17.67;8.67;;;;;;;3.66;74.18;99964.37;1695177;82;21132;-55
2021/10/17 03:21:18;;;;;;;15.33;7.63;;;;;;;3.63;74.32;99961.78;1691824;83;21089;-55
2021/10/17 03:23:44;;;;;;;11.07;6.13;;;;;;;3.61;74.57;99959.59;1668994;83;23220;-55
2021/10/17 03:26:10;;;;;;;7.80;6.20;;;;;;;3.63;74.76;99967.11;1701773;83;21878;-55
2021/10/17 03:28:39;;;;;;;8.67;5.27;;;;;;;3.68;75.00;99968.34;1699769;82;21145;-55
2021/10/17 03:31:07;;;;;;;9.30;5.83;;;;;;;3.71;75.23;99965.64;1693686;83;21591;-55
2021/10/17 03:33:35;;;;;;;9.53;6.37;;;;;;;3.77;75.53;99966.41;1696798;82;21066;-55
2021/10/17 03:36:04;;;;;;;9.57;6.70;;;;;;;3.84;75.74;99960.52;1716573;82;21161;-56
2021/10/17 03:38:32;;;;;;;10.83;6.93;;;;;;;3.94;76.01;99962.56;1716075;82;21045;-55
2021/10/17 03:40:59;;;;;;;10.07;6.90;;;;;;;4.01;76.23;99961.09;1715043;82;21062;-55
2021/10/17 03:43:25;;;;;;;10.77;7.67;;;;;;;4.10;76.51;99961.37;1646618;86;21157;-55
2021/10/17 03:45:53;;;;;;;11.03;8.53;;;;;;;4.17;76.65;99956.34;1712939;82;21469;-55
2021/10/17 03:48:20;;;;;;;11.47;8.23;;;;;;;4.24;76.75;99956.68;1716790;82;21999;-56
2021/10/17 03:50:47;;;;;;;11.17;7.63;;;;;;;4.30;76.95;99961.88;1715532;82;21735;-56
2021/10/17 03:53:14;;;;;;;13.30;7.37;;;;;;;4.36;77.21;99959.08;1719328;82;21081;-56
2021/10/17 03:55:41;;;;;;;10.10;6.80;;;;;;;4.44;77.40;99946.48;1716808;81;21105;-56
2021/10/17 03:58:08;;;;;;;10.87;6.20;;;;;;;4.53;77.55;99954.75;1716704;82;21057;-56
2021/10/17 04:00:35;;;;;;;11.33;5.47;;;;;;;4.60;77.63;99956.37;1715032;82;22865;-56
2021/10/17 04:03:03;;;;;;;10.03;6.40;;;;;;;4.68;77.69;99960.23;1719331;82;21061;-56
2021/10/17 04:05:30;;;;;;;13.07;6.03;;;;;;;4.74;77.78;99962.31;1716065;81;21038;-56
2021/10/17 04:07:56;;;;;;;10.90;7.07;;;;;;;4.81;77.91;99959.93;1712040;82;21070;-56
2021/10/17 04:10:24;;;;;;;11.83;7.33;;;;;;;4.87;77.97;99963.79;1720108;82;21089;-56
2021/10/17 04:12:52;;;;;;;10.77;7.73;;;;;;;4.93;78.01;99963.64;1715568;82;21531;-56
2021/10/17 04:15:20;;;;;;;13.27;9.57;;;;;;;4.97;78.12;99961.80;1715503;81;20990;-56
2021/10/17 04:17:46;;;;;;;10.70;7.43;;;;;;;5.00;78.08;99967.08;1717303;82;21120;-56
2021/10/17 04:20:13;;;;;;;10.13;7.10;;;;;;;5.03;78.13;99966.11;1715983;82;21096;-56
2021/10/17 04:22:41;;;;;;;9.93;6.27;;;;;;;5.05;78.10;99965.17;1647655;85;21074;-56
2021/10/17 04:25:08;;;;;;;10.83;6.10;;;;;;;5.09;78.09;99965.55;1711547;82;21142;-56
2021/10/17 04:27:37;;;;;;;12.03;6.67;;;;;;;5.13;77.98;99969.00;1650422;85;20912;-56
2021/10/17 04:30:05;;;;;;;8.67;4.43;;;;;;;5.16;77.95;99960.94;1720800;82;20975;-56
2021/10/17 04:32:32;;;;;;;6.77;5.60;;;;;;;5.19;77.86;99972.39;1717419;81;21117;-56
2021/10/17 04:34:59;;;;;;;9.23;5.60;;;;;;;5.22;77.83;99968.34;1710630;82;21096;-56
2021/10/17 04:37:29;;;;;;;10.97;6.67;;;;;;;5.25;77.80;99970.06;1706290;82;21139;-56
2021/10/17 04:39:56;;;;;;;8.13;6.70;;;;;;;5.28;77.85;99969.52;1703758;82;21227;-56
2021/10/17 04:42:22;;;;;;;9.60;7.07;;;;;;;5.30;77.87;99974.38;1710190;82;20903;-56
2021/10/17 04:44:50;;;;;;;11.27;7.10;;;;;;;5.32;77.86;99974.34;1705460;82;22220;-56
2021/10/17 04:47:18;;;;;;;10.47;6.10;;;;;;;5.33;77.87;99974.77;1706670;82;21096;-56
2021/10/17 04:49:44;;;;;;;13.60;7.13;;;;;;;5.35;77.88;99974.73;1706774;82;21153;-56
2021/10/17 04:52:11;;;;;;;18.23;7.33;;;;;;;5.38;78.04;99974.19;1703528;82;21077;-56
2021/10/17 04:54:38;;;;;;;12.37;6.10;;;;;;;5.42;78.29;99976.34;1700334;82;21053;-56
2021/10/17 04:57:05;;;;;;;8.33;4.93;;;;;;;5.46;78.43;99974.88;1705865;82;21037;-55
2021/10/17 04:59:33;;;;;;;15.97;6.43;;;;;;;5.52;78.49;99968.53;1705111;82;21124;-56
2021/10/17 05:02:01;;;;;;;11.00;6.80;;;;;;;5.58;78.58;99973.72;1701987;82;23296;-56
2021/10/17 05:04:28;;;;;;;14.50;8.87;;;;;;;5.65;78.74;99973.98;1704303;82;21177;-55
2021/10/17 05:06:54;;;;;;;11.93;8.03;;;;;;;5.69;78.96;99973.00;1706914;82;21046;-56
2021/10/17 05:09:22;;;;;;;14.07;9.20;;;;;;;5.76;79.10;99977.73;1701868;82;21057;-56
2021/10/17 05:11:48;;;;;;;12.03;9.20;;;;;;;5.81;79.29;99976.69;1701416;82;21156;-56
2021/10/17 05:14:16;;;;;;;16.93;8.70;;;;;;;5.86;79.38;99981.47;1706009;82;21960;-56
2021/10/17 05:16:43;;;;;;;12.37;8.40;;;;;;;5.93;79.44;99984.44;1705478;82;21504;-56
2021/10/17 05:19:09;;;;;;;12.47;8.47;;;;;;;5.99;79.49;99988.27;1708598;82;21742;-55
2021/10/17 05:21:36;;;;;;;16.57;9.13;;;;;;;6.05;79.58;99979.20;1709187;82;21328;-56
2021/10/17 05:24:03;;;;;;;14.97;7.33;;;;;;;6.11;79.66;99979.53;1709187;82;21559;-56
2021/10/17 05:26:30;;;;;;;13.23;7.10;;;;;;;6.19;79.77;99975.73;1706244;82;21903;-56
2021/10/17 05:28:56;;;;;;;15.43;6.83;;;;;;;6.29;79.97;99978.58;1706503;82;20891;-55
2021/10/17 05:31:23;;;;;;;11.67;7.13;;;;;;;6.41;79.98;99984.91;1705880;82;21041;-55
2021/10/17 05:33:50;;;;;;;13.00;8.23;;;;;;;6.52;79.97;99986.41;1677221;82;20982;-55
2021/10/17 05:36:18;;;;;;;15.20;8.80;;;;;;;6.60;79.82;99984.40;1724866;82;21042;-56
2021/10/17 05:38:46;;;;;;;14.83;9.53;;;;;;;6.67;79.74;99990.86;1724907;81;21761;-56
2021/10/17 05:41:12;;;;;;;10.97;8.97;;;;;;;6.72;79.65;99983.57;1727935;82;21367;-56
2021/10/17 05:43:40;;;;;;;13.03;7.93;;;;;;;6.76;79.58;99987.05;1726901;82;21010;-55
2021/10/17 05:46:06;;;;;;;13.10;7.53;;;;;;;6.80;79.59;99989.58;1724288;82;21540;-56
2021/10/17 05:48:33;;;;;;;11.13;6.73;;;;;;;6.86;79.56;99990.34;1724059;82;21690;-56
2021/10/17 05:50:59;;;;;;;10.37;6.97;;;;;;;6.89;79.51;99991.10;1726574;82;21547;-55
2021/10/17 05:53:26;;;;;;;11.53;5.77;;;;;;;6.93;79.58;99985.21;1724543;82;21132;-56
2021/10/17 05:55:52;;;;;;;10.80;7.00;;;;;;;7.01;79.60;99996.11;1723588;82;21077;-55
2021/10/17 05:58:19;;;;;;;12.53;7.57;;;;;;;7.07;79.52;99996.38;1727661;82;21091;-56
2021/10/17 06:00:45;;;;;;;12.50;8.03;;;;;;;7.12;79.49;99994.45;1729249;82;21056;-55
2021/10/17 06:03:12;;;;;;;17.47;8.30;;;;;;;7.16;79.45;99993.42;1730548;82;21485;-55
2021/10/17 06:05:43;;;;;;;13.77;8.70;;;;;;;7.20;79.48;99996.43;1681956;82;21250;-56
2021/10/17 06:08:10;;;;;;;11.20;6.70;;;;;;;7.25;79.47;99992.26;1724639;82;21098;-55
2021/10/17 06:10:41;;;;;;;12.07;6.30;;;;;;;7.27;79.39;99994.44;1723600;82;21161;-55
2021/10/17 06:13:08;;;;;;;12.83;6.30;;;;;;;7.32;79.38;99997.38;1728439;82;21042;-56
2021/10/17 06:15:36;;;;;;;13.07;6.60;;;;;;;7.37;79.39;99999.47;1726386;82;20897;-55
2021/10/17 06:18:02;;;;;;;10.37;6.33;;;;;;;7.43;79.38;100005.08;1728124;82;21087;-55
2021/10/17 06:20:28;;;;;;;10.10;6.17;;;;;;;7.49;79.42;100003.54;1727395;82;21513;-56
2021/10/17 06:22:56;;;;;;;11.97;6.90;;;;;;;7.56;79.38;99997.97;1727036;82;21521;-56
2021/10/17 06:25:22;;;;;;;9.53;7.70;;;;;;;7.66;79.31;100009.70;1726543;82;21466;-56
2021/10/17 06:27:49;;;;;;;14.17;7.70;;;;;;;7.71;79.32;100001.94;1702478;82;22211;-56
2021/10/17 06:30:16;;;;;;;9.07;7.23;;;;;;;7.77;79.28;100013.80;1722649;82;22632;-56
2021/10/17 06:32:42;;;;;;;12.43;6.93;;;;;;;7.82;79.11;100011.86;1727143;82;21545;-56
2021/10/17 06:35:13;;;;;;;10.57;6.03;;;;;;;7.88;78.88;100003.60;1723535;82;20900;-57
2021/10/17 06:37:40;;;;;;;15.70;6.00;;;;;;;7.96;78.68;100004.69;1707773;82;21059;-55
2021/10/17 06:40:08;;;;;;;10.13;4.57;;;;;;;8.02;78.46;100002.25;1705648;82;21429;-55
2021/10/17 06:42:35;;;;;;;8.93;5.17;;;;;;;8.08;78.36;100004.25;1710228;82;21006;-57
2021/10/17 06:45:20;;;;;;;11.03;5.60;;;;;;;8.16;77.99;100004.90;1709895;82;21035;-57
2021/10/17 06:47:49;;;;;;;9.10;5.70;;;;;;;8.21;77.86;100002.92;1706853;82;21042;-56
2021/10/17 06:50:20;;;;;;;9.30;5.80;;;;;;;8.25;77.61;100000.52;1708113;82;21105;-57
2021/10/17 06:52:44;;;;;;;10.70;6.73;;;;;;;8.31;77.55;100003.52;1707606;82;21139;-57
2021/10/17 06:55:10;;;;;;;7.93;6.03;;;;;;;8.35;77.31;99997.97;1706079;82;21193;-56
2021/10/17 06:57:37;;;;;;;12.80;7.17;;;;;;;8.41;77.11;100006.75;1710794;82;21074;-56
2021/10/17 07:00:19;;;;;;;10.83;5.67;;;;;;;8.45;76.87;100007.91;1708746;82;21128;-56
2021/10/17 07:02:47;;;;;;;7.67;4.97;;;;;;;8.47;76.61;99997.14;1655148;84;21822;-56
2021/10/17 07:05:13;;;;;;;12.47;4.92;;;;;;;8.53;76.30;100002.27;1650871;85;21219;-56
2021/10/17 07:07:40;;;;;;;11.57;5.03;;;;;;;8.57;76.19;100004.81;1648113;85;21152;-56
2021/10/17 07:10:08;;;;;;;8.83;4.53;;;;;;;8.63;76.01;100003.23;1647455;85;21053;-56
2021/10/17 07:12:53;;;;;;;10.55;6.03;;;;;;;8.72;75.53;100002.02;1623746;87;21073;-55
2021/10/17 07:15:21;;;;;;;11.65;5.47;;;;;;;8.78;75.26;100006.28;1608260;87;21156;-56
2021/10/17 07:17:58;;;;;;;8.73;5.03;;;;;;;8.84;75.00;100006.08;1651802;84;21138;-55
2021/10/17 07:20:25;;;;;;;11.05;5.05;;;;;;;8.88;74.62;100013.94;1654129;85;21220;-56
2021/10/17 07:22:51;;;;;;;7.92;4.37;;;;;;;8.89;74.40;100005.42;1655290;85;21152;-55
2021/10/17 07:25:18;;;;;;;6.70;3.40;;;;;;;8.91;74.30;100012.50;1648407;85;21152;-56
2021/10/17 07:27:44;;;;;;;8.90;4.12;;;;;;;8.95;73.85;100012.77;1616736;86;21126;-55
2021/10/17 07:30:11;;;;;;;10.80;4.08;;;;;;;8.99;73.60;100019.80;1617753;87;23293;-56
2021/10/17 07:32:38;;;;;;;13.20;4.00;;;;;;;9.05;73.42;100014.19;1644141;85;21200;-55
2021/10/17 07:35:07;;;;;;;6.33;4.15;;;;;;;9.13;73.20;100013.02;1638442;85;21021;-55
2021/10/17 07:37:36;;;;;;;7.45;4.20;;;;;;;9.20;73.09;100007.34;1604895;87;21453;-54
2021/10/17 07:40:07;;;;;;;15.15;5.45;;;;;;;9.27;72.85;100008.02;1637319;85;21006;-55
2021/10/17 07:42:35;;;;;;;12.65;4.58;;;;;;;9.30;72.15;100006.53;1634323;85;21130;-56
2021/10/17 07:45:01;;;;;;;9.85;4.28;;;;;;;9.29;71.94;100007.45;1602775;87;21057;-57
2021/10/17 07:50:09;;;;;;;9.90;3.60;;;;;;;9.32;71.62;100004.20;1771552;78;22683;-57
2021/10/17 07:52:37;;;;;;;8.18;3.90;;;;;;;9.32;71.50;100013.59;1737811;80;20954;-57
2021/10/17 07:55:06;;;;;;;11.12;3.95;;;;;;;9.36;71.23;100010.30;1738592;80;21113;-56
2021/10/17 07:57:48;;;;;;;8.45;3.55;;;;;;;9.39;71.25;100017.79;1698423;81;20950;-57
2021/10/17 08:00:19;;;;;;;5.92;2.83;;;;;;;9.46;71.29;100011.70;1667714;82;20888;-57
2021/10/17 08:02:47;;;;;;;5.90;2.37;;;;;;;9.54;71.04;100013.61;1688144;82;20970;-55
2021/10/17 08:05:15;;;;;;;4.50;1.70;;;;;;;9.59;70.39;100007.61;1692320;82;20970;-55
2021/10/17 08:07:44;;;;;;;5.90;2.65;;;;;;;9.62;69.98;100011.49;1701206;82;22209;-57
2021/10/17 08:10:11;;;;;;;9.95;3.27;;;;;;;9.62;69.56;100015.99;1701045;82;20980;-57
2021/10/17 08:12:38;;;;;;;9.60;2.52;;;;;;;9.62;69.50;100012.84;1702951;81;20927;-55
2021/10/17 08:15:05;;;;;;;12.60;3.02;;;;;;;9.65;69.50;100005.13;1704047;81;20990;-56
2021/10/17 08:17:32;;;;;;;4.70;1.80;;;;;;;9.70;69.29;100000.43;1702966;82;20935;-56
2021/10/17 08:20:05;;;;;;;5.00;1.92;;;;;;;9.74;69.00;100000.73;1705109;82;21061;-57
2021/10/17 08:22:32;;;;;;;4.55;1.30;;;;;;;9.81;68.68;99998.19;1700997;82;21397;-56
2021/10/17 08:25:01;;;;;;;4.30;1.82;;;;;;;9.86;68.35;100004.27;1702926;82;20959;-56
2021/10/17 08:27:28;;;;;;;7.15;1.55;;;;;;;9.92;68.34;99998.63;1702711;82;21054;-56
2021/10/17 08:29:55;;;;;;;2.47;1.12;;;;;;;9.99;68.18;99999.24;1699590;82;20962;-55
2021/10/17 08:32:21;;;;;;;4.83;2.17;;;;;;;10.06;67.87;100000.26;1694032;82;22622;-56
2021/10/17 08:34:48;;;;;;;3.22;1.65;;;;;;;10.12;67.73;99993.27;1680622;83;20930;-57
2021/10/17 08:37:15;;;;;;;4.78;1.37;;;;;;;10.18;67.42;100000.25;1672744;83;21038;-58
2021/10/17 08:39:55;;;;;;;5.30;1.87;;;;;;;10.21;67.27;99995.60;1666572;83;21136;-57
2021/10/17 08:42:23;;;;;;;4.22;1.62;;;;;;;10.27;67.03;99990.45;1678213;83;20949;-57
2021/10/17 08:44:55;;;;;;;8.15;1.52;;;;;;;10.32;66.74;99993.80;1673761;83;21293;-56
2021/10/17 08:47:19;;;;;;;3.72;1.10;;;;;;;10.39;66.27;99990.36;1659265;83;21444;-56
2021/10/17 08:49:46;;;;;;;6.28;2.00;;;;;;;10.46;66.08;99995.91;1672093;83;21558;-57
2021/10/17 08:52:12;;;;;;;6.22;1.85;;;;;;;10.57;65.29;99994.95;1668375;83;22310;-57
2021/10/17 08:54:44;;;;;;;3.55;1.05;;;;;;;10.67;64.80;99990.03;1670845;83;20966;-57
2021/10/17 08:57:10;;;;;;;4.40;1.80;;;;;;;10.75;64.40;99991.91;1656615;83;21144;-57
2021/10/17 08:59:37;;;;;;;6.92;2.17;;;;;;;10.84;64.33;99995.05;1676230;83;22305;-57
2021/10/17 09:02:18;;;;;;;5.92;1.60;;;;;;;10.97;64.15;99984.61;1662424;83;20957;-56
2021/10/17 09:05:06;;;;;;;9.50;1.55;;;;;;;11.12;63.89;99985.71;1648258;84;20933;-56
2021/10/17 09:07:51;;;;;;;6.00;1.00;;;;;;;11.24;63.73;99986.47;1647243;84;22242;-57
2021/10/17 09:10:37;;;;;;;6.43;1.07;;;;;;;11.37;62.59;99987.66;1641282;86;21124;-56
2021/10/17 09:13:10;;;;;;;4.87;1.37;;;;;;;11.41;61.15;99987.01;1668881;83;21053;-57
2021/10/17 09:15:37;;;;;;;9.43;1.50;;;;;;;11.37;60.76;99989.88;1666968;83;21543;-58
2021/10/17 09:18:18;;;;;;;8.85;1.30;;;;;;;11.32;60.71;99993.24;1665525;83;21288;-57
2021/10/17 09:20:55;;;;;;;5.67;1.42;;;;;;;11.27;60.64;99989.03;1675840;83;21578;-57
2021/10/17 09:23:30;;;;;;;3.87;1.00;;;;;;;11.20;59.79;99992.49;1675937;83;21660;-55
2021/10/17 09:25:58;;;;;;;;;;;;;;;11.11;59.32;99990.23;1683345;83;21049;-54
2021/10/17 09:28:30;;;;;;;3.55;1.20;;;;;;;11.01;59.04;99984.86;1684019;83;20413;-56
2021/10/17 09:31:03;;;;;;;5.70;1.00;;;;;;;10.91;58.69;99975.45;1671668;83;21479;-55
2021/10/17 09:33:30;;;;;;;4.47;0.93;;;;;;;10.85;58.20;99979.30;1674563;83;20977;-55
2021/10/17 09:35:57;;;;;;;4.70;1.25;;;;;;;10.82;58.03;99979.91;1671586;83;21105;-55
2021/10/17 09:38:42;;;;;;;2.55;1.00;;;;;;;10.78;57.42;99980.53;1674479;83;21166;-55
2021/10/17 09:41:18;;;;;;;4.33;1.10;;;;;;;10.77;57.49;99970.70;1668206;83;21673;-55
2021/10/17 09:43:58;;;;;;;2.60;0.73;;;;;;;10.76;57.29;99967.61;1657014;84;21082;-56
2021/10/17 09:46:29;;;;;;;1.82;0.72;;;;;;;10.77;57.52;99980.13;1655483;84;20979;-56
2021/10/17 09:48:55;;;;;;;6.42;1.20;;;;;;;10.78;57.23;99972.92;1661338;84;21736;-55
2021/10/17 09:51:28;;;;;;;5.45;0.95;;;;;;;10.78;56.99;99972.45;1658552;84;21464;-57
2021/10/17 09:53:59;;;;;;;3.87;0.98;;;;;;;10.78;56.62;99971.11;1652014;84;21118;-55
2021/10/17 09:56:39;;;;;;;4.67;0.88;;;;;;;10.80;56.96;99973.74;1707280;81;20973;-55
2021/10/17 09:59:11;;;;;;;4.92;1.10;;;;;;;10.80;56.41;99977.28;1672935;83;21087;-56
2021/10/17 10:01:41;;;;;;;4.22;0.80;;;;;;;10.78;56.04;99973.80;1709790;81;21159;-56
2021/10/17 10:04:12;;;;;;;2.58;0.85;;;;;;;10.79;55.91;99974.68;1707509;81;20948;-56
2021/10/17 10:06:40;;;;;;;8.05;1.00;;;;;;;10.78;55.36;99969.77;1697207;81;21250;-56
2021/10/17 10:09:09;;;;;;;3.75;0.90;;;;;;;10.77;55.33;99966.67;1707953;81;21310;-57
2021/10/17 10:11:37;;;;;;;3.72;0.70;;;;;;;10.78;55.20;99975.15;1698689;81;21077;-54
2021/10/17 10:14:08;;;;;;;3.62;1.05;;;;;;;10.79;54.73;99971.52;1710822;81;21487;-55
2021/10/17 10:16:35;;;;;;;3.83;1.17;;;;;;;10.81;54.47;99973.64;1711042;81;20899;-56
2021/10/17 10:19:06;;;;;;;4.37;1.00;;;;;;;10.80;54.02;99967.01;1709664;82;21530;-56
2021/10/17 10:21:35;;;;;;;7.85;0.80;;;;;;;10.83;53.66;99961.46;1714739;81;21180;-55
2021/10/17 10:24:09;;;;;;;4.42;1.10;;;;;;;10.83;53.54;99966.38;1708673;82;21077;-56
2021/10/17 10:26:36;;;;;;;5.00;1.20;;;;;;;10.84;53.42;99957.36;1708305;81;21393;-57
2021/10/17 10:29:03;;;;;;;5.12;0.82;;;;;;;10.86;53.37;99959.52;1701339;81;21447;-56
2021/10/17 10:31:47;;;;;;;3.37;1.20;;;;;;;10.89;53.31;99958.01;1702184;80;21487;-56
2021/10/17 10:34:25;;;;;;;4.60;0.80;;;;;;;10.94;53.23;99959.16;1704999;81;21248;-55
2021/10/17 10:36:54;;;;;;;5.20;1.00;;;;;;;10.98;53.12;99954.02;1666359;83;21524;-55
2021/10/17 10:39:23;;;;;;;4.45;1.10;;;;;;;11.02;53.03;99954.28;1665119;83;21096;-56
2021/10/17 10:42:04;;;;;;;3.92;1.00;;;;;;;11.05;52.85;99953.28;1705921;81;21657;-56
2021/10/17 10:44:36;;;;;;;5.25;0.90;;;;;;;11.06;52.69;99955.87;1706419;81;20969;-57
2021/10/17 10:47:25;;;;;;;6.95;1.00;;;;;;;11.07;52.58;99952.23;1670873;83;20962;-57
2021/10/17 10:49:55;;;;;;;3.55;0.80;;;;;;;11.07;52.25;99946.84;1708202;81;21365;-58
2021/10/17 10:52:36;;;;;;;4.40;0.95;;;;;;;11.03;52.28;99941.22;1676980;83;21112;-56
2021/10/17 10:55:06;;;;;;;4.00;0.90;;;;;;;11.01;52.03;99948.49;1680008;83;20878;-55
2021/10/17 10:57:41;;;;;;;2.47;1.45;;;;;;;10.97;51.94;99949.09;1674506;83;20898;-57
2021/10/17 11:00:18;;;;;;;2.47;0.88;;;;;;;10.94;51.97;99945.22;1662383;84;21350;-56
2021/10/17 11:03:13;;;;;;;6.67;1.57;;;;;;;10.94;51.60;99949.27;1656495;84;21924;-57
2021/10/17 11:05:40;;;;;;;4.33;0.90;;;;;;;10.91;51.39;99948.52;1655329;84;21954;-56
2021/10/17 11:08:13;;;;;;;5.17;0.90;;;;;;;10.89;51.14;99944.55;1675787;83;20952;-57
2021/10/17 11:10:40;;;;;;;3.25;0.82;;;;;;;10.88;51.41;99950.02;1677920;83;20954;-56
2021/10/17 11:13:08;;;;;;;4.30;1.60;;;;;;;10.86;51.61;99943.36;1649886;84;20932;-55
2021/10/17 11:15:39;;;;;;;3.60;1.22;;;;;;;10.84;51.74;99937.16;1649671;84;20973;-56
2021/10/17 11:18:11;;;;;;;2.15;1.12;;;;;;;10.83;51.45;99939.92;1659812;84;21160;-56
2021/10/17 11:20:42;;;;;;;4.70;1.42;;;;;;;10.78;51.22;99933.89;1656604;84;20908;-57
2021/10/17 11:23:19;;;;;;;3.27;1.00;;;;;;;10.77;51.41;99929.44;1658849;84;21673;-57
2021/10/17 11:25:57;;;;;;;6.05;0.90;;;;;;;10.76;51.26;99930.38;1652742;84;20914;-57
2021/10/17 11:28:25;;;;;;;3.60;0.90;;;;;;;10.78;51.57;99931.19;1657606;84;21548;-56
2021/10/17 11:31:11;;;;;;;3.83;0.88;;;;;;;10.82;51.41;99929.62;1656155;84;21545;-56
2021/10/17 11:33:44;;;;;;;5.03;1.00;;;;;;;10.86;51.33;99929.02;1661061;84;21085;-56
2021/10/17 11:36:12;;;;;;;3.17;0.95;;;;;;;10.90;51.04;99918.48;1659300;84;20974;-57
2021/10/17 11:38:40;;;;;;;3.17;0.88;;;;;;;10.93;50.81;99915.66;1662297;84;20959;-56
2021/10/17 11:41:08;;;;;;;2.80;0.90;;;;;;;10.96;50.48;99908.80;1676785;83;21000;-56
2021/10/17 11:43:48;;;;;;;6.25;0.93;;;;;;;10.98;50.51;99920.34;1672289;83;21668;-56